createdAt,value
2022-11-20T00:00:52.290Z,32.77
2022-11-20T00:03:19.001Z,35.27
2022-11-20T00:05:45.794Z,35.87
2022-11-20T00:08:12.767Z,32.57
2022-11-20T00:10:42.399Z,31.53
2022-11-20T00:13:09.146Z,33.07
2022-11-20T00:15:35.871Z,31.03
2022-11-20T00:18:02.582Z,32.80
2022-11-20T00:20:29.219Z,29.40
2022-11-20T00:22:55.885Z,32.13
2022-11-20T00:25:22.571Z,31.20
2022-11-20T00:27:49.199Z,33.03
2022-11-20T00:30:15.959Z,31.87
2022-11-20T00:32:42.634Z,29.37
2022-11-20T00:35:09.345Z,28.97
2022-11-20T00:37:36.068Z,30.93
2022-11-20T00:40:02.699Z,35.80
2022-11-20T00:42:29.328Z,30.17
2022-11-20T00:44:56.027Z,30.10
2022-11-20T00:47:22.662Z,31.33
2022-11-20T00:49:49.354Z,31.93
2022-11-20T00:52:16.088Z,33.47
2022-11-20T00:54:42.723Z,33.03
2022-11-20T00:57:09.341Z,34.33
2022-11-20T00:59:35.992Z,32.83
2022-11-20T01:02:02.600Z,33.97
2022-11-20T01:04:29.306Z,35.43
2022-11-20T01:06:55.938Z,36.07
2022-11-20T01:09:22.945Z,32.60
2022-11-20T01:11:49.900Z,34.77
2022-11-20T01:14:20.701Z,33.37
2022-11-20T01:16:49.377Z,34.93
2022-11-20T01:19:18.479Z,34.77
2022-11-20T01:21:46.407Z,30.93
2022-11-20T01:24:14.356Z,34.23
2022-11-20T01:26:42.007Z,34.10
2022-11-20T01:29:12.155Z,32.83
2022-11-20T01:31:38.760Z,36.10
2022-11-20T01:34:07.183Z,33.93
2022-11-20T01:36:34.730Z,33.07
2022-11-20T01:39:03.314Z,33.10
2022-11-20T01:41:50.989Z,35.23
2022-11-20T01:44:18.919Z,31.30
2022-11-20T01:46:59.932Z,36.50
2022-11-20T01:49:35.060Z,32.97
2022-11-20T01:52:05.243Z,34.77
2022-11-20T01:54:36.517Z,33.57
2022-11-20T01:57:04.651Z,35.27
2022-11-20T01:59:31.600Z,36.43
2022-11-20T02:01:58.412Z,36.23
2022-11-20T02:04:25.839Z,33.40
2022-11-20T02:07:00.440Z,34.00
2022-11-20T02:09:27.806Z,39.30
2022-11-20T02:11:54.864Z,37.60
2022-11-20T02:14:22.752Z,37.30
2022-11-20T02:16:49.906Z,35.27
2022-11-20T02:19:26.112Z,42.17
2022-11-20T02:22:11.064Z,36.07
2022-11-20T02:24:37.726Z,38.93
2022-11-20T02:27:06.780Z,36.47
2022-11-20T02:29:53.362Z,37.37
2022-11-20T02:32:23.032Z,35.20
2022-11-20T02:34:49.714Z,38.37
2022-11-20T02:37:16.902Z,34.80
2022-11-20T02:39:45.581Z,34.40
2022-11-20T02:42:12.261Z,36.40
2022-11-20T02:44:38.872Z,37.87
2022-11-20T02:47:05.612Z,35.40
2022-11-20T02:49:32.514Z,36.13
2022-11-20T02:51:59.196Z,37.27
2022-11-20T02:54:26.015Z,37.47
2022-11-20T02:56:53.004Z,36.03
2022-11-20T02:59:20.125Z,36.70
2022-11-20T03:01:46.958Z,39.00
2022-11-20T03:04:13.537Z,37.30
2022-11-20T03:06:40.102Z,37.20
2022-11-20T03:09:07.060Z,37.23
2022-11-20T03:11:33.940Z,38.47
2022-11-20T03:14:03.059Z,39.80
2022-11-20T03:16:29.997Z,35.27
2022-11-20T03:18:56.638Z,38.90
2022-11-20T03:21:23.292Z,34.37
2022-11-20T03:23:50.257Z,37.93
2022-11-20T03:26:21.837Z,33.60
2022-11-20T03:28:52.914Z,37.73
2022-11-20T03:31:21.152Z,35.53
2022-11-20T03:33:48.570Z,35.43
2022-11-20T03:36:16.166Z,35.77
2022-11-20T03:38:43.353Z,38.87
2022-11-20T03:41:30.346Z,37.20
2022-11-20T03:43:58.487Z,32.93
2022-11-20T03:46:25.464Z,36.30
2022-11-20T03:48:52.450Z,37.70
2022-11-20T03:51:22.219Z,40.13
2022-11-20T03:53:50.113Z,38.00
2022-11-20T03:56:18.122Z,36.27
2022-11-20T03:58:44.889Z,37.03
2022-11-20T04:01:15.931Z,34.83
2022-11-20T04:03:43.285Z,35.67
2022-11-20T04:06:14.488Z,37.40
2022-11-20T04:08:41.494Z,34.97
2022-11-20T04:11:12.102Z,35.03
2022-11-20T04:13:39.158Z,33.67
2022-11-20T04:16:09.744Z,38.17
2022-11-20T04:18:36.870Z,35.47
2022-11-20T04:21:04.058Z,36.87
2022-11-20T04:23:30.744Z,39.57
2022-11-20T04:26:07.693Z,36.40
2022-11-20T04:28:34.401Z,33.17
2022-11-20T04:31:08.826Z,33.00
2022-11-20T04:33:36.024Z,32.83
2022-11-20T04:36:07.316Z,32.63
2022-11-20T04:38:34.034Z,33.37
2022-11-20T04:41:01.331Z,32.23
2022-11-20T04:43:28.295Z,32.63
2022-11-20T04:45:55.567Z,32.97
2022-11-20T04:48:22.352Z,32.73
2022-11-20T04:50:49.036Z,31.83
2022-11-20T04:53:15.759Z,31.13
2022-11-20T04:55:42.459Z,29.27
2022-11-20T04:58:09.355Z,29.93
2022-11-20T05:00:36.215Z,32.03
2022-11-20T05:03:02.900Z,32.23
2022-11-20T05:05:29.514Z,34.37
2022-11-20T05:07:59.109Z,32.30
2022-11-20T05:10:26.469Z,32.87
2022-11-20T05:12:53.463Z,34.90
2022-11-20T05:15:20.495Z,32.87
2022-11-20T05:17:51.049Z,33.20
2022-11-20T05:20:18.255Z,36.40
2022-11-20T05:22:45.057Z,37.17
2022-11-20T05:25:12.466Z,35.83
2022-11-20T05:27:39.458Z,45.37
2022-11-20T05:30:06.820Z,44.23
2022-11-20T05:32:33.573Z,47.60
2022-11-20T05:35:00.346Z,45.23
2022-11-20T05:37:27.162Z,50.47
2022-11-20T05:39:53.959Z,47.97
2022-11-20T05:42:32.854Z,49.77
2022-11-20T05:45:00.420Z,52.07
2022-11-20T05:47:27.916Z,51.37
2022-11-20T05:49:54.717Z,49.17
2022-11-20T05:52:21.431Z,48.53
2022-11-20T05:54:48.120Z,52.23
2022-11-20T05:57:14.812Z,47.70
2022-11-20T05:59:41.615Z,45.50
2022-11-20T06:02:08.308Z,49.97
2022-11-20T06:04:35.005Z,51.07
2022-11-20T06:07:01.661Z,44.33
2022-11-20T06:09:28.384Z,52.80
2022-11-20T06:11:55.050Z,52.17
2022-11-20T06:14:21.752Z,45.27
2022-11-20T06:16:48.403Z,44.97
2022-11-20T06:19:15.987Z,53.63
2022-11-20T06:21:42.647Z,48.53
2022-11-20T06:24:12.422Z,45.37
2022-11-20T06:26:39.133Z,40.33
2022-11-20T06:29:05.793Z,42.73
2022-11-20T06:31:35.939Z,38.87
2022-11-20T06:34:02.611Z,35.90
2022-11-20T06:36:29.228Z,36.00
2022-11-20T06:38:55.860Z,28.77
2022-11-20T06:41:22.945Z,30.70
2022-11-20T06:43:50.093Z,28.43
2022-11-20T06:46:21.047Z,29.50
2022-11-20T06:48:48.543Z,26.00
2022-11-20T06:51:15.548Z,24.10
2022-11-20T06:53:42.144Z,26.77
2022-11-20T06:56:09.017Z,30.10
2022-11-20T06:58:36.310Z,25.20
2022-11-20T07:01:05.004Z,26.33
2022-11-20T07:03:32.044Z,23.00
2022-11-20T07:05:59.595Z,23.03
2022-11-20T07:08:26.661Z,23.97
2022-11-20T07:10:53.465Z,22.97
2022-11-20T07:13:20.143Z,21.37
2022-11-20T07:15:46.806Z,21.50
2022-11-20T07:18:13.396Z,22.73
2022-11-20T07:20:40.098Z,23.90
2022-11-20T07:23:06.774Z,21.07
2022-11-20T07:25:34.037Z,23.40
2022-11-20T07:28:00.963Z,25.57
2022-11-20T07:30:28.606Z,23.73
2022-11-20T07:32:56.463Z,25.27
2022-11-20T07:35:23.854Z,26.40
2022-11-20T07:37:50.675Z,28.33
2022-11-20T07:40:17.904Z,24.60
2022-11-20T07:42:51.263Z,26.00
2022-11-20T07:45:21.835Z,24.17
2022-11-20T07:47:48.640Z,28.20
2022-11-20T07:50:15.420Z,26.73
2022-11-20T07:52:42.085Z,29.33
2022-11-20T07:55:09.756Z,30.87
2022-11-20T07:57:36.421Z,28.13
2022-11-20T08:00:03.676Z,26.67
2022-11-20T08:02:40.367Z,29.33
2022-11-20T08:05:07.819Z,30.57
2022-11-20T08:07:41.631Z,31.70
2022-11-20T08:10:09.551Z,33.43
2022-11-20T08:12:55.052Z,30.60
2022-11-20T08:15:22.706Z,32.77
2022-11-20T08:18:15.411Z,33.53
2022-11-20T08:20:36.704Z,35.40
2022-11-20T08:23:04.631Z,36.63
2022-11-20T08:25:31.372Z,32.13
2022-11-20T08:28:00.282Z,34.77
2022-11-20T08:30:28.697Z,37.27
2022-11-20T08:32:55.584Z,30.73
2022-11-20T08:35:22.896Z,34.87
2022-11-20T08:37:49.879Z,30.13
2022-11-20T08:40:19.603Z,34.97
2022-11-20T08:42:47.255Z,31.50
2022-11-20T08:45:13.935Z,35.83
2022-11-20T08:47:40.640Z,32.60
2022-11-20T08:50:07.576Z,36.60
2022-11-20T08:52:37.016Z,32.30
2022-11-20T08:55:07.088Z,31.50
2022-11-20T08:57:36.960Z,35.50
2022-11-20T09:00:06.658Z,31.37
2022-11-20T09:02:33.753Z,33.60
2022-11-20T09:05:00.969Z,36.03
2022-11-20T09:07:27.903Z,33.90
2022-11-20T09:10:22.207Z,32.67
2022-11-20T09:12:41.591Z,29.47
2022-11-20T09:15:08.473Z,33.13
2022-11-20T09:17:35.055Z,31.53
2022-11-20T09:20:01.700Z,30.30
2022-11-20T09:22:28.306Z,32.80
2022-11-20T09:24:55.037Z,31.57
2022-11-20T09:27:22.545Z,28.77
2022-11-20T09:29:49.186Z,32.97
2022-11-20T09:32:15.853Z,31.10
2022-11-20T09:34:42.644Z,36.17
2022-11-20T09:37:09.554Z,32.30
2022-11-20T09:39:40.013Z,31.57
2022-11-20T09:42:14.375Z,40.77
2022-11-20T09:44:40.937Z,31.87
2022-11-20T09:47:13.602Z,31.57
2022-11-20T09:50:00.655Z,34.67
2022-11-20T09:52:33.103Z,33.90
2022-11-20T09:55:02.201Z,34.10
2022-11-20T09:57:48.071Z,31.70
2022-11-20T10:00:15.495Z,32.17
2022-11-20T10:02:57.444Z,32.33
2022-11-20T10:05:28.266Z,34.43
2022-11-20T10:07:57.731Z,29.97
2022-11-20T10:10:47.312Z,37.73
2022-11-20T10:13:34.896Z,34.67
2022-11-20T10:16:10.606Z,35.43
2022-11-20T10:18:45.680Z,33.83
2022-11-20T10:21:15.214Z,32.13
2022-11-20T10:23:51.168Z,32.80
2022-11-20T10:26:22.204Z,36.40
2022-11-20T10:29:06.001Z,35.90
2022-11-20T10:31:35.241Z,32.40
2022-11-20T10:34:12.078Z,37.30
2022-11-20T10:36:46.021Z,35.30
2022-11-20T10:39:17.794Z,34.40
2022-11-20T10:41:47.352Z,31.30
2022-11-20T10:44:44.836Z,37.17
2022-11-20T10:47:14.216Z,32.97
2022-11-20T10:49:41.444Z,36.90
2022-11-20T10:52:26.141Z,30.10
2022-11-20T10:55:11.266Z,34.67
2022-11-20T10:57:56.555Z,32.67
2022-11-20T11:00:23.206Z,32.13
2022-11-20T11:02:51.122Z,32.53
2022-11-20T11:05:36.402Z,36.50
2022-11-20T11:08:04.349Z,32.50
2022-11-20T11:10:34.941Z,34.67
2022-11-20T11:13:02.186Z,35.27
2022-11-20T11:15:38.287Z,33.57
2022-11-20T11:18:05.290Z,36.23
2022-11-20T11:20:32.810Z,34.10
2022-11-20T11:23:00.109Z,35.90
2022-11-20T11:25:26.718Z,30.63
2022-11-20T11:27:54.050Z,29.43
2022-11-20T11:30:21.308Z,31.87
2022-11-20T11:32:48.377Z,29.17
2022-11-20T11:35:28.276Z,30.20
2022-11-20T11:38:05.342Z,31.13
2022-11-20T11:40:35.765Z,27.57
2022-11-20T11:43:05.195Z,26.90
2022-11-20T11:45:31.889Z,26.43
2022-11-20T11:47:59.298Z,25.13
2022-11-20T11:50:26.780Z,27.37
2022-11-20T11:53:04.097Z,25.23
2022-11-20T11:55:32.873Z,25.20
2022-11-20T11:58:10.811Z,27.50
2022-11-20T12:00:40.520Z,25.50
2022-11-20T12:03:28.246Z,24.13
2022-11-20T12:06:15.066Z,23.20
2022-11-20T12:08:51.479Z,23.80
2022-11-20T12:11:25.382Z,22.30
2022-11-20T12:13:57.311Z,22.93
2022-11-20T12:16:23.972Z,21.67
2022-11-20T12:18:52.140Z,18.97
2022-11-20T12:21:21.840Z,18.57
2022-11-20T12:24:08.729Z,21.20
2022-11-20T12:26:50.478Z,24.33
2022-11-20T12:29:26.164Z,29.40
2022-11-20T12:32:22.080Z,29.37
2022-11-20T12:34:54.531Z,25.80
2022-11-20T12:37:21.165Z,18.60
2022-11-20T12:39:51.505Z,25.30
2022-11-20T12:42:49.192Z,34.27
2022-11-20T12:45:23.085Z,25.10
2022-11-20T12:48:00.627Z,17.73
2022-11-20T12:51:00.376Z,10.17
2022-11-20T12:53:38.681Z,11.33
2022-11-20T12:56:32.733Z,12.63
2022-11-20T12:59:18.204Z,9.90
2022-11-20T13:01:51.432Z,7.63
2022-11-20T13:04:24.879Z,11.33
2022-11-20T13:06:51.804Z,8.20
2022-11-20T13:09:20.347Z,7.63
2022-11-20T13:11:51.519Z,6.60
2022-11-20T13:14:27.442Z,6.00
2022-11-20T13:17:12.905Z,7.43
2022-11-20T13:19:39.771Z,7.17
2022-11-20T13:22:06.742Z,6.03
2022-11-20T13:24:33.568Z,5.10
2022-11-20T13:27:01.539Z,7.87
2022-11-20T13:29:28.367Z,5.87
2022-11-20T13:32:07.632Z,5.80
2022-11-20T13:34:35.916Z,9.37
2022-11-20T13:37:04.774Z,6.37
2022-11-20T13:39:32.765Z,6.37
2022-11-20T13:42:02.684Z,4.63
2022-11-20T13:44:39.979Z,7.53
2022-11-20T13:47:21.322Z,7.40
2022-11-20T13:49:49.392Z,4.13
2022-11-20T13:52:31.096Z,5.87
2022-11-20T13:55:18.009Z,6.50
2022-11-20T13:57:50.875Z,7.40
2022-11-20T14:00:19.228Z,5.00
2022-11-20T14:02:51.768Z,4.90
2022-11-20T14:05:24.720Z,4.83
2022-11-20T14:07:52.204Z,3.33
2022-11-20T14:10:31.993Z,2.27
2022-11-20T14:12:59.883Z,3.20
2022-11-20T14:15:28.130Z,3.77
2022-11-20T14:17:54.819Z,6.80
2022-11-20T14:20:24.298Z,3.53
2022-11-20T14:22:51.688Z,3.03
2022-11-20T14:25:18.340Z,4.00
2022-11-20T14:27:53.088Z,6.63
2022-11-20T14:30:20.865Z,6.13
2022-11-20T14:32:48.333Z,4.87
2022-11-20T14:35:28.505Z,2.90
2022-11-20T14:37:55.653Z,6.53
2022-11-20T14:40:25.219Z,5.50
2022-11-20T14:42:51.837Z,1.60
2022-11-20T14:45:19.275Z,4.90
2022-11-20T14:47:46.067Z,3.63
2022-11-20T14:50:21.738Z,4.37
2022-11-20T14:52:52.126Z,4.97
2022-11-20T14:55:34.817Z,3.73
2022-11-20T14:58:21.159Z,3.67
2022-11-20T15:00:55.580Z,7.40
2022-11-20T15:03:22.171Z,8.27
2022-11-20T15:05:50.112Z,14.63
2022-11-20T15:08:17.277Z,10.60
2022-11-20T15:10:49.204Z,9.40
2022-11-20T15:13:18.857Z,9.70
2022-11-20T15:15:49.021Z,9.60
2022-11-20T15:18:17.601Z,8.17
2022-11-20T15:20:44.643Z,6.90
2022-11-20T15:23:12.715Z,6.10
2022-11-20T15:25:40.270Z,21.13
2022-11-20T15:28:13.875Z,6.87
2022-11-20T15:30:40.480Z,5.43
2022-11-20T15:33:09.053Z,4.53
2022-11-20T15:35:35.815Z,7.47
2022-11-20T15:38:02.594Z,4.13
2022-11-20T15:40:29.344Z,9.97
2022-11-20T15:43:09.694Z,9.37
2022-11-20T15:45:44.266Z,4.33
2022-11-20T15:48:17.161Z,4.80
2022-11-20T15:50:53.760Z,5.53
2022-11-20T15:53:20.388Z,4.90
2022-11-20T15:55:47.011Z,5.47
2022-11-20T15:58:13.691Z,3.50
2022-11-20T16:00:40.457Z,4.97
2022-11-20T16:03:10.071Z,7.53
2022-11-20T16:05:36.657Z,6.63
2022-11-20T16:08:07.187Z,7.77
2022-11-20T16:10:36.948Z,6.43
2022-11-20T16:13:22.698Z,6.57
2022-11-20T16:15:54.064Z,3.97
2022-11-20T16:18:22.102Z,2.07
2022-11-20T16:20:49.743Z,2.50
2022-11-20T16:23:16.842Z,2.70
2022-11-20T16:25:43.808Z,2.53
2022-11-20T16:28:17.416Z,2.73
2022-11-20T16:30:45.901Z,2.03
2022-11-20T16:33:13.485Z,2.87
2022-11-20T16:35:40.396Z,2.13
2022-11-20T16:38:07.049Z,3.37
2022-11-20T16:40:33.718Z,3.37
2022-11-20T16:43:07.963Z,4.47
2022-11-20T16:45:35.706Z,4.53
2022-11-20T16:48:02.303Z,4.60
2022-11-20T16:50:28.970Z,2.63
2022-11-20T16:52:55.919Z,1.73
2022-11-20T16:55:22.576Z,2.00
2022-11-20T16:57:49.157Z,1.83
2022-11-20T17:00:16.028Z,1.67
2022-11-20T17:02:42.627Z,1.50
2022-11-20T17:05:09.403Z,1.97
2022-11-20T17:07:36.094Z,1.87
2022-11-20T17:10:02.774Z,1.30
2022-11-20T17:12:29.307Z,1.90
2022-11-20T17:14:56.099Z,2.10
2022-11-20T17:17:22.726Z,2.53
2022-11-20T17:19:49.350Z,3.23
2022-11-20T17:22:15.913Z,2.60
2022-11-20T17:24:42.539Z,3.70
2022-11-20T17:27:09.246Z,5.60
2022-11-20T17:29:41.753Z,3.23
2022-11-20T17:32:08.730Z,5.87
2022-11-20T17:34:35.295Z,4.80
2022-11-20T17:37:02.428Z,6.43
2022-11-20T17:39:29.028Z,5.10
2022-11-20T17:42:14.047Z,9.53
2022-11-20T17:44:42.678Z,8.70
2022-11-20T17:47:09.402Z,4.67
2022-11-20T17:49:36.042Z,4.33
2022-11-20T17:52:02.767Z,6.87
2022-11-20T17:54:30.347Z,6.40
2022-11-20T17:57:15.550Z,7.73
2022-11-20T17:59:42.159Z,7.10
2022-11-20T18:02:10.857Z,10.00
2022-11-20T18:04:37.550Z,7.47
2022-11-20T18:07:04.351Z,11.67
2022-11-20T18:09:31.443Z,9.77
2022-11-20T18:11:58.058Z,10.03
2022-11-20T18:14:34.687Z,8.33
2022-11-20T18:17:04.400Z,11.00
2022-11-20T18:19:40.423Z,11.97
2022-11-20T18:22:11.803Z,11.13
2022-11-20T18:24:39.509Z,12.90
2022-11-20T18:27:07.346Z,12.53
2022-11-20T18:29:33.957Z,10.20
2022-11-20T18:32:01.146Z,8.60
2022-11-20T18:34:27.902Z,12.03
2022-11-20T18:36:55.663Z,14.20
2022-11-20T18:39:23.623Z,11.70
2022-11-20T18:42:08.649Z,9.13
2022-11-20T18:44:54.933Z,13.57
2022-11-20T18:47:21.577Z,9.70
2022-11-20T18:49:57.138Z,10.57
2022-11-20T18:52:25.386Z,11.90
2022-11-20T18:54:52.380Z,14.43
2022-11-20T18:57:20.093Z,14.47
2022-11-20T18:59:46.998Z,14.40
2022-11-20T19:02:14.727Z,16.60
2022-11-20T19:04:41.497Z,14.13
2022-11-20T19:07:10.827Z,11.27
2022-11-20T19:09:45.473Z,14.10
2022-11-20T19:12:14.367Z,14.77
2022-11-20T19:14:41.121Z,12.07
2022-11-20T19:17:08.476Z,18.40
2022-11-20T19:19:35.094Z,11.10
2022-11-20T19:22:01.683Z,9.80
2022-11-20T19:24:28.472Z,8.73
2022-11-20T19:26:56.193Z,14.37
2022-11-20T19:29:23.812Z,12.07
2022-11-20T19:31:50.562Z,14.10
2022-11-20T19:34:17.270Z,10.53
2022-11-20T19:36:45.111Z,12.13
2022-11-20T19:39:12.333Z,8.37
2022-11-20T19:41:39.648Z,9.83
2022-11-20T19:44:07.567Z,13.00
2022-11-20T19:46:34.908Z,12.73
2022-11-20T19:49:01.934Z,7.93
2022-11-20T19:51:29.976Z,7.87
2022-11-20T19:53:59.903Z,7.80
2022-11-20T19:56:27.380Z,9.03
2022-11-20T19:58:54.502Z,10.57
2022-11-20T20:01:26.696Z,3.47
2022-11-20T20:03:53.943Z,9.57
2022-11-20T20:06:21.758Z,7.23
2022-11-20T20:08:54.016Z,4.77
2022-11-20T20:11:21.640Z,6.43
2022-11-20T20:13:48.192Z,8.57
2022-11-20T20:16:16.219Z,8.00
2022-11-20T20:18:43.050Z,5.37
2022-11-20T20:21:10.552Z,6.57
2022-11-20T20:23:37.725Z,8.40
2022-11-20T20:26:05.206Z,5.13
2022-11-20T20:28:32.170Z,4.93
2022-11-20T20:31:05.401Z,8.47
2022-11-20T20:33:32.030Z,7.77
2022-11-20T20:35:58.814Z,6.30
2022-11-20T20:38:25.405Z,5.37
2022-11-20T20:40:52.123Z,8.83
2022-11-20T20:43:18.737Z,10.10
2022-11-20T20:45:48.929Z,6.13
2022-11-20T20:48:16.088Z,7.60
2022-11-20T20:50:43.708Z,5.97
2022-11-20T20:53:10.522Z,8.47
2022-11-20T20:55:37.137Z,5.97
2022-11-20T20:58:03.786Z,9.57
2022-11-20T21:00:30.699Z,13.43
2022-11-20T21:02:57.422Z,9.90
2022-11-20T21:05:24.171Z,7.30
2022-11-20T21:08:09.591Z,6.60
2022-11-20T21:10:36.287Z,10.20
2022-11-20T21:13:03.053Z,10.13
2022-11-20T21:15:29.783Z,7.53
2022-11-20T21:17:56.435Z,12.07
2022-11-20T21:20:46.207Z,10.27
2022-11-20T21:23:12.973Z,11.40
2022-11-20T21:25:40.305Z,9.03
2022-11-20T21:28:07.283Z,10.87
2022-11-20T21:30:34.421Z,10.40
2022-11-20T21:33:02.181Z,12.17
2022-11-20T21:35:29.092Z,15.67
2022-11-20T21:37:55.824Z,13.37
2022-11-20T21:40:22.608Z,11.70
2022-11-20T21:42:49.353Z,14.53
2022-11-20T21:45:16.029Z,10.60
2022-11-20T21:47:43.706Z,6.97
2022-11-20T21:50:10.584Z,16.87
2022-11-20T21:52:37.219Z,17.77
2022-11-20T21:55:04.046Z,13.90
2022-11-20T21:57:33.151Z,17.77
2022-11-20T21:59:59.919Z,13.77
2022-11-20T22:02:26.640Z,13.73
2022-11-20T22:04:53.327Z,18.80
2022-11-20T22:07:20.129Z,16.30
2022-11-20T22:09:47.068Z,16.30
2022-11-20T22:12:13.766Z,17.83
2022-11-20T22:14:40.495Z,19.03
2022-11-20T22:17:12.039Z,14.13
2022-11-20T22:19:38.677Z,11.17
2022-11-20T22:22:05.389Z,14.73
2022-11-20T22:24:32.009Z,14.13
2022-11-20T22:26:58.604Z,18.60
2022-11-20T22:29:25.356Z,11.83
2022-11-20T22:31:52.440Z,21.20
2022-11-20T22:34:19.153Z,17.83
2022-11-20T22:36:45.782Z,17.60
2022-11-20T22:39:12.408Z,17.53
2022-11-20T22:41:39.133Z,9.80
2022-11-20T22:44:07.249Z,17.57
2022-11-20T22:46:35.117Z,16.07
2022-11-20T22:49:03.068Z,11.00
2022-11-20T22:51:30.919Z,12.87
2022-11-20T22:53:57.914Z,14.33
2022-11-20T22:56:24.564Z,15.33
2022-11-20T22:58:52.018Z,14.97
2022-11-20T23:01:23.063Z,15.20
2022-11-20T23:03:50.776Z,13.37
2022-11-20T23:06:18.577Z,10.63
2022-11-20T23:08:45.501Z,15.57
2022-11-20T23:11:13.204Z,18.17
2022-11-20T23:13:40.378Z,18.27
2022-11-20T23:16:08.463Z,14.97
2022-11-20T23:18:35.648Z,15.20
2022-11-20T23:21:10.175Z,16.43
2022-11-20T23:23:36.957Z,14.00
2022-11-20T23:26:09.367Z,16.37
2022-11-20T23:28:35.977Z,14.67
2022-11-20T23:31:03.460Z,16.00
2022-11-20T23:33:30.134Z,14.17
2022-11-20T23:35:56.990Z,17.47
2022-11-20T23:38:23.865Z,14.73
2022-11-20T23:40:51.209Z,15.43
2022-11-20T23:43:18.396Z,15.50
2022-11-20T23:45:46.374Z,16.37
2022-11-20T23:48:13.289Z,17.77
2022-11-20T23:50:39.964Z,21.17
2022-11-20T23:53:06.862Z,16.37
2022-11-20T23:55:33.860Z,11.53
2022-11-20T23:58:00.606Z,14.03
